createdAt,value
2023-09-21T00:00:19.915Z,94839
2023-09-21T00:01:29.537Z,94836
2023-09-21T00:02:39.265Z,94836
2023-09-21T00:03:48.078Z,94835
2023-09-21T00:04:57.605Z,94833
2023-09-21T00:06:07.280Z,94832
2023-09-21T00:07:16.944Z,94832
2023-09-21T00:08:26.649Z,94825
2023-09-21T00:09:35.345Z,94822
2023-09-21T00:10:44.005Z,94823
2023-09-21T00:11:52.731Z,94818
2023-09-21T00:13:02.384Z,94814
2023-09-21T00:14:12.137Z,94813
2023-09-21T00:15:20.815Z,94809
2023-09-21T00:16:30.579Z,94806
2023-09-21T00:17:40.261Z,94807
2023-09-21T00:18:49.437Z,94803
2023-09-21T00:19:57.561Z,94802
2023-09-21T00:21:06.308Z,94799
2023-09-21T00:22:14.952Z,94799
2023-09-21T00:23:24.615Z,94795
2023-09-21T00:24:34.306Z,94799
2023-09-21T00:25:43.006Z,94795
2023-09-21T00:26:52.704Z,94795
2023-09-21T00:28:01.384Z,94791
2023-09-21T00:29:10.073Z,94794
2023-09-21T00:30:18.814Z,94794
2023-09-21T00:31:28.510Z,94796
2023-09-21T00:32:38.299Z,94793
2023-09-21T00:33:47.828Z,94798
2023-09-21T00:34:56.549Z,94799
2023-09-21T00:36:06.276Z,94800
2023-09-21T00:37:13.924Z,94803
2023-09-21T00:38:23.701Z,94797
2023-09-21T00:39:32.453Z,94799
2023-09-21T00:40:41.154Z,94796
2023-09-21T00:41:50.947Z,94799
2023-09-21T00:42:58.560Z,94796
2023-09-21T00:44:08.301Z,94794
2023-09-21T00:45:16.013Z,94794
2023-09-21T00:46:24.707Z,94791
2023-09-21T00:47:34.546Z,94789
2023-09-21T00:48:42.301Z,94780
2023-09-21T00:49:52.468Z,94781
2023-09-21T00:51:04.001Z,94782
2023-09-21T00:52:12.642Z,94776
2023-09-21T00:53:22.396Z,94777
2023-09-21T00:54:30.065Z,94767
2023-09-21T00:55:39.744Z,94763
2023-09-21T00:56:49.577Z,94771
2023-09-21T00:57:57.222Z,94767
2023-09-21T00:59:05.886Z,94764
2023-09-21T01:00:14.630Z,94769
2023-09-21T01:01:24.663Z,94766
2023-09-21T01:02:34.036Z,94763
2023-09-21T01:03:41.788Z,94767
2023-09-21T01:04:51.405Z,94761
2023-09-21T01:06:01.125Z,94758
2023-09-21T01:07:08.806Z,94762
2023-09-21T01:08:17.499Z,94760
2023-09-21T01:09:27.287Z,94757
2023-09-21T01:10:36.911Z,94762
2023-09-21T01:11:46.604Z,94757
2023-09-21T01:12:55.287Z,94760
2023-09-21T01:14:05.025Z,94758
2023-09-21T01:15:13.706Z,94755
2023-09-21T01:16:22.413Z,94759
2023-09-21T01:17:32.111Z,94757
2023-09-21T01:18:40.854Z,94755
2023-09-21T01:19:49.573Z,94753
2023-09-21T01:20:59.355Z,94752
2023-09-21T01:22:09.005Z,94753
2023-09-21T01:23:17.677Z,94749
2023-09-21T01:24:27.348Z,94747
2023-09-21T01:25:36.028Z,94745
2023-09-21T01:26:44.838Z,94748
2023-09-21T01:27:52.525Z,94738
2023-09-21T01:29:01.187Z,94741
2023-09-21T01:30:10.888Z,94737
2023-09-21T01:31:19.907Z,94733
2023-09-21T01:32:28.320Z,94731
2023-09-21T01:33:38.061Z,94731
2023-09-21T01:34:45.676Z,94730
2023-09-21T01:35:54.447Z,94729
2023-09-21T01:37:03.425Z,94725
2023-09-21T01:38:13.101Z,94726
2023-09-21T01:39:22.780Z,94723
2023-09-21T01:40:32.483Z,94724
2023-09-21T01:41:41.235Z,94723
2023-09-21T01:42:50.886Z,94721
2023-09-21T01:44:00.567Z,94725
2023-09-21T01:45:09.292Z,94723
2023-09-21T01:46:19.084Z,94716
2023-09-21T01:47:27.655Z,94717
2023-09-21T01:48:37.487Z,94715
2023-09-21T01:49:46.011Z,94712
2023-09-21T01:50:54.744Z,94714
2023-09-21T01:52:04.362Z,94712
2023-09-21T01:53:13.060Z,94708
2023-09-21T01:54:21.737Z,94706
2023-09-21T01:55:30.417Z,94706
2023-09-21T01:56:40.085Z,94703
2023-09-21T01:57:49.732Z,94706
2023-09-21T01:58:57.418Z,94702
2023-09-21T02:00:07.208Z,94703
2023-09-21T02:01:16.918Z,94701
2023-09-21T02:02:25.541Z,94702
2023-09-21T02:03:34.270Z,94705
2023-09-21T02:04:43.909Z,94702
2023-09-21T02:05:53.597Z,94698
2023-09-21T02:07:03.314Z,94697
2023-09-21T02:08:10.990Z,94700
2023-09-21T02:09:20.718Z,94700
2023-09-21T02:10:30.322Z,94699
2023-09-21T02:11:38.015Z,94696
2023-09-21T02:12:46.686Z,94695
2023-09-21T02:13:55.423Z,94692
2023-09-21T02:15:05.120Z,94689
2023-09-21T02:16:14.797Z,94689
2023-09-21T02:17:24.500Z,94683
2023-09-21T02:18:33.206Z,94682
2023-09-21T02:19:42.862Z,94681
2023-09-21T02:20:53.737Z,94683
2023-09-21T02:22:00.314Z,94687
2023-09-21T02:23:08.989Z,94686
2023-09-21T02:24:17.706Z,94684
2023-09-21T02:25:27.428Z,94686
2023-09-21T02:26:37.089Z,94685
2023-09-21T02:27:45.759Z,94684
2023-09-21T02:28:55.437Z,94682
2023-09-21T02:30:03.131Z,94683
2023-09-21T02:31:11.823Z,94683
2023-09-21T02:32:21.423Z,94681
2023-09-21T02:33:31.316Z,94678
2023-09-21T02:34:40.797Z,94680
2023-09-21T02:35:49.605Z,94675
2023-09-21T02:36:57.255Z,94680
2023-09-21T02:38:06.920Z,94682
2023-09-21T02:39:14.603Z,94682
2023-09-21T02:40:23.249Z,94680
2023-09-21T02:41:31.967Z,94676
2023-09-21T02:42:40.610Z,94676
2023-09-21T02:43:49.296Z,94678
2023-09-21T02:44:58.015Z,94676
2023-09-21T02:46:07.706Z,94672
2023-09-21T02:47:15.368Z,94669
2023-09-21T02:48:24.129Z,94669
2023-09-21T02:49:33.681Z,94671
2023-09-21T02:50:43.368Z,94668
2023-09-21T02:51:53.054Z,94671
2023-09-21T02:53:01.768Z,94669
2023-09-21T02:54:11.461Z,94667
2023-09-21T02:55:21.114Z,94665
2023-09-21T02:56:28.801Z,94668
2023-09-21T02:57:38.525Z,94665
2023-09-21T02:58:48.144Z,94664
2023-09-21T02:59:55.811Z,94661
2023-09-21T03:01:04.501Z,94661
2023-09-21T03:02:14.239Z,94658
2023-09-21T03:03:23.002Z,94658
2023-09-21T03:04:32.579Z,94652
2023-09-21T03:05:40.270Z,94652
2023-09-21T03:06:48.919Z,94649
2023-09-21T03:07:58.608Z,94651
2023-09-21T03:09:06.326Z,94650
2023-09-21T03:10:14.966Z,94650
2023-09-21T03:11:24.657Z,94652
2023-09-21T03:12:33.349Z,94647
2023-09-21T03:13:43.089Z,94644
2023-09-21T03:14:52.775Z,94648
2023-09-21T03:16:02.456Z,94648
2023-09-21T03:17:12.111Z,94645
2023-09-21T03:18:19.838Z,94643
2023-09-21T03:19:28.438Z,94642
2023-09-21T03:20:37.110Z,94640
2023-09-21T03:21:45.779Z,94640
2023-09-21T03:22:55.455Z,94637
2023-09-21T03:24:03.156Z,94637
2023-09-21T03:25:12.795Z,94640
2023-09-21T03:26:23.339Z,94639
2023-09-21T03:27:31.131Z,94642
2023-09-21T03:28:39.828Z,94639
2023-09-21T03:29:48.627Z,94639
2023-09-21T03:30:58.685Z,94633
2023-09-21T03:32:07.923Z,94635
2023-09-21T03:33:15.730Z,94633
2023-09-21T03:34:24.285Z,94634
2023-09-21T03:35:32.968Z,94629
2023-09-21T03:36:41.672Z,94625
2023-09-21T03:37:50.342Z,94623
2023-09-21T03:39:00.101Z,94621
2023-09-21T03:40:09.764Z,94620
2023-09-21T03:41:19.468Z,94617
2023-09-21T03:42:27.187Z,94618
2023-09-21T03:43:36.888Z,94616
2023-09-21T03:44:46.614Z,94615
2023-09-21T03:45:54.290Z,94619
2023-09-21T03:47:02.956Z,94610
2023-09-21T03:48:11.674Z,94614
2023-09-21T03:49:20.335Z,94614
2023-09-21T03:50:30.069Z,94608
2023-09-21T03:51:38.735Z,94609
2023-09-21T03:52:47.431Z,94606
2023-09-21T03:53:58.134Z,94607
2023-09-21T03:55:07.796Z,94601
2023-09-21T03:56:17.556Z,94606
2023-09-21T03:57:26.310Z,94600
2023-09-21T03:58:34.974Z,94597
2023-09-21T03:59:44.695Z,94596
2023-09-21T04:00:52.385Z,94592
2023-09-21T04:02:01.370Z,94595
2023-09-21T04:03:13.941Z,94597
2023-09-21T04:04:21.263Z,94594
2023-09-21T04:05:29.908Z,94598
2023-09-21T04:06:38.582Z,94595
2023-09-21T04:07:47.249Z,94593
2023-09-21T04:08:56.997Z,94594
2023-09-21T04:10:05.664Z,94589
2023-09-21T04:11:14.317Z,94585
2023-09-21T04:12:24.048Z,94588
2023-09-21T04:13:31.705Z,94587
2023-09-21T04:14:40.416Z,94587
2023-09-21T04:15:49.077Z,94589
2023-09-21T04:16:58.755Z,94586
2023-09-21T04:18:08.522Z,94589
2023-09-21T04:19:18.157Z,94583
2023-09-21T04:20:26.983Z,94585
2023-09-21T04:21:36.490Z,94584
2023-09-21T04:22:44.157Z,94586
2023-09-21T04:23:53.893Z,94583
2023-09-21T04:25:03.604Z,94587
2023-09-21T04:26:13.295Z,94583
2023-09-21T04:27:23.900Z,94584
2023-09-21T04:28:33.579Z,94584
2023-09-21T04:29:42.301Z,94583
2023-09-21T04:30:50.987Z,94584
2023-09-21T04:31:59.762Z,94582
2023-09-21T04:33:09.432Z,94582
2023-09-21T04:34:18.144Z,94581
2023-09-21T04:35:27.839Z,94578
2023-09-21T04:36:37.505Z,94580
2023-09-21T04:37:46.205Z,94578
2023-09-21T04:38:54.881Z,94576
2023-09-21T04:40:04.562Z,94579
2023-09-21T04:41:14.245Z,94574
2023-09-21T04:42:23.973Z,94574
2023-09-21T04:43:31.700Z,94573
2023-09-21T04:44:40.375Z,94571
2023-09-21T04:45:50.134Z,94567
2023-09-21T04:46:58.791Z,94567
2023-09-21T04:48:08.523Z,94573
2023-09-21T04:49:17.113Z,94567
2023-09-21T04:50:26.908Z,94570
2023-09-21T04:51:36.563Z,94573
2023-09-21T04:52:44.225Z,94570
2023-09-21T04:53:54.006Z,94570
2023-09-21T04:55:03.607Z,94572
2023-09-21T04:56:12.324Z,94574
2023-09-21T04:57:22.019Z,94571
2023-09-21T04:58:29.711Z,94578
2023-09-21T04:59:38.357Z,94573
2023-09-21T05:00:50.272Z,94580
2023-09-21T05:01:56.738Z,94576
2023-09-21T05:03:05.470Z,94576
2023-09-21T05:04:14.334Z,94577
2023-09-21T05:05:23.739Z,94576
2023-09-21T05:06:33.509Z,94570
2023-09-21T05:07:43.200Z,94570
2023-09-21T05:08:51.889Z,94568
2023-09-21T05:10:01.547Z,94570
2023-09-21T05:11:10.238Z,94565
2023-09-21T05:12:18.991Z,94568
2023-09-21T05:13:27.663Z,94568
2023-09-21T05:14:38.329Z,94569
2023-09-21T05:15:48.014Z,94571
2023-09-21T05:16:55.696Z,94571
2023-09-21T05:18:04.578Z,94573
2023-09-21T05:19:14.180Z,94572
2023-09-21T05:20:22.867Z,94572
2023-09-21T05:21:31.565Z,94573
2023-09-21T05:22:40.285Z,94569
2023-09-21T05:23:49.972Z,94570
2023-09-21T05:24:59.745Z,94576
2023-09-21T05:26:07.439Z,94567
2023-09-21T05:27:16.155Z,94568
2023-09-21T05:28:25.853Z,94565
2023-09-21T05:29:33.537Z,94568
2023-09-21T05:30:43.274Z,94569
2023-09-21T05:31:52.982Z,94565
2023-09-21T05:33:02.759Z,94566
2023-09-21T05:34:12.366Z,94565
2023-09-21T05:35:20.987Z,94563
2023-09-21T05:36:30.740Z,94561
2023-09-21T05:37:40.485Z,94560
2023-09-21T05:38:48.267Z,94563
2023-09-21T05:39:56.812Z,94556
2023-09-21T05:41:05.487Z,94560
2023-09-21T05:42:14.212Z,94562
2023-09-21T05:43:23.878Z,94561
2023-09-21T05:44:33.504Z,94567
2023-09-21T05:45:43.203Z,94563
2023-09-21T05:46:52.967Z,94566
2023-09-21T05:48:02.708Z,94563
2023-09-21T05:49:12.356Z,94559
2023-09-21T05:50:21.013Z,94565
2023-09-21T05:51:29.721Z,94562
2023-09-21T05:52:39.432Z,94563
2023-09-21T05:53:48.124Z,94562
2023-09-21T05:54:57.842Z,94563
2023-09-21T05:56:07.457Z,94561
2023-09-21T05:57:15.240Z,94562
2023-09-21T05:58:23.812Z,94563
2023-09-21T05:59:32.744Z,94566
2023-09-21T06:00:41.425Z,94565
2023-09-21T06:01:51.154Z,94567
2023-09-21T06:02:59.889Z,94569
2023-09-21T06:04:08.682Z,94568
2023-09-21T06:05:18.264Z,94571
2023-09-21T06:06:26.938Z,94565
2023-09-21T06:07:35.640Z,94564
2023-09-21T06:08:44.509Z,94564
2023-09-21T06:09:53.087Z,94566
2023-09-21T06:11:02.842Z,94563
2023-09-21T06:12:12.610Z,94558
2023-09-21T06:13:22.302Z,94558
2023-09-21T06:14:31.963Z,94559
2023-09-21T06:15:39.692Z,94556
2023-09-21T06:16:48.356Z,94553
2023-09-21T06:17:57.160Z,94552
2023-09-21T06:19:06.726Z,94550
2023-09-21T06:20:17.421Z,94553
2023-09-21T06:21:25.156Z,94546
2023-09-21T06:22:34.848Z,94546
2023-09-21T06:23:44.609Z,94546
2023-09-21T06:24:52.250Z,94551
2023-09-21T06:26:00.924Z,94548
2023-09-21T06:27:09.666Z,94550
2023-09-21T06:28:19.342Z,94553
2023-09-21T06:29:29.034Z,94545
2023-09-21T06:30:37.709Z,94546
2023-09-21T06:31:54.802Z,94543
2023-09-21T06:32:58.114Z,94540
2023-09-21T06:34:05.758Z,94538
2023-09-21T06:35:14.422Z,94540
2023-09-21T06:36:23.292Z,94542
2023-09-21T06:37:30.854Z,94542
2023-09-21T06:38:39.613Z,94537
2023-09-21T06:39:48.311Z,94534
2023-09-21T06:40:58.021Z,94531
2023-09-21T06:42:06.778Z,94533
2023-09-21T06:43:16.502Z,94527
2023-09-21T06:44:26.245Z,94531
2023-09-21T06:45:35.040Z,94530
2023-09-21T06:46:42.686Z,94532
2023-09-21T06:47:51.676Z,94529
2023-09-21T06:49:01.261Z,94533
2023-09-21T06:50:11.311Z,94531
2023-09-21T06:51:20.001Z,94531
2023-09-21T06:52:28.680Z,94526
2023-09-21T06:53:38.345Z,94524
2023-09-21T06:54:46.156Z,94527
2023-09-21T06:55:55.776Z,94526
2023-09-21T06:57:06.560Z,94533
2023-09-21T06:58:15.276Z,94529
2023-09-21T06:59:24.926Z,94524
2023-09-21T07:00:34.621Z,94522
2023-09-21T07:01:44.330Z,94521
2023-09-21T07:02:54.097Z,94518
2023-09-21T07:04:01.942Z,94517
2023-09-21T07:05:11.464Z,94520
2023-09-21T07:06:21.203Z,94514
2023-09-21T07:07:29.814Z,94515
2023-09-21T07:08:39.540Z,94516
2023-09-21T07:09:48.221Z,94513
2023-09-21T07:10:56.934Z,94515
2023-09-21T07:12:06.602Z,94515
2023-09-21T07:13:15.284Z,94516
2023-09-21T07:14:24.024Z,94511
2023-09-21T07:15:33.708Z,94510
2023-09-21T07:16:43.352Z,94512
2023-09-21T07:17:53.131Z,94518
2023-09-21T07:19:01.809Z,94516
2023-09-21T07:20:11.483Z,94518
2023-09-21T07:21:21.177Z,94521
2023-09-21T07:22:29.822Z,94517
2023-09-21T07:23:38.483Z,94522
2023-09-21T07:24:48.220Z,94521
2023-09-21T07:25:56.981Z,94519
2023-09-21T07:27:06.666Z,94521
2023-09-21T07:28:15.364Z,94512
2023-09-21T07:29:24.080Z,94517
2023-09-21T07:30:34.058Z,94517
2023-09-21T07:31:41.496Z,94511
2023-09-21T07:32:50.263Z,94515
2023-09-21T07:33:59.891Z,94515
2023-09-21T07:35:09.527Z,94511
2023-09-21T07:36:18.237Z,94513
2023-09-21T07:37:27.929Z,94506
2023-09-21T07:38:36.692Z,94506
2023-09-21T07:39:46.390Z,94501
2023-09-21T07:40:54.058Z,94497
2023-09-21T07:42:02.788Z,94497
2023-09-21T07:43:11.440Z,94500
2023-09-21T07:44:20.122Z,94500
2023-09-21T07:45:29.810Z,94499
2023-09-21T07:46:37.576Z,94502
2023-09-21T07:47:47.494Z,94506
2023-09-21T07:48:56.948Z,94507
2023-09-21T07:50:04.584Z,94508
2023-09-21T07:51:13.251Z,94514
2023-09-21T07:52:21.964Z,94514
2023-09-21T07:53:30.703Z,94513
2023-09-21T07:54:40.404Z,94517
2023-09-21T07:55:48.120Z,94519
2023-09-21T07:56:57.798Z,94517
2023-09-21T07:58:07.567Z,94518
2023-09-21T07:59:16.256Z,94517
2023-09-21T08:00:23.991Z,94516
2023-09-21T08:01:32.627Z,94517
2023-09-21T08:02:41.397Z,94515
2023-09-21T08:03:51.150Z,94519
2023-09-21T08:05:00.904Z,94514
2023-09-21T08:06:09.480Z,94514
2023-09-21T08:07:19.174Z,94516
2023-09-21T08:08:26.870Z,94516
2023-09-21T08:09:36.634Z,94518
2023-09-21T08:10:46.291Z,94517
2023-09-21T08:11:56.004Z,94512
2023-09-21T08:13:05.678Z,94514
2023-09-21T08:14:14.429Z,94517
2023-09-21T08:15:23.146Z,94514
2023-09-21T08:16:32.842Z,94510
2023-09-21T08:17:40.636Z,94515
2023-09-21T08:18:49.315Z,94508
2023-09-21T08:19:58.013Z,94508
2023-09-21T08:21:07.717Z,94507
2023-09-21T08:22:17.385Z,94509
2023-09-21T08:23:27.054Z,94507
2023-09-21T08:24:35.838Z,94507
2023-09-21T08:25:45.627Z,94508
2023-09-21T08:26:55.367Z,94506
2023-09-21T08:28:03.990Z,94503
2023-09-21T08:29:12.669Z,94505
2023-09-21T08:30:21.481Z,94507
2023-09-21T08:31:31.145Z,94507
2023-09-21T08:32:39.818Z,94507
2023-09-21T08:33:48.512Z,94511
2023-09-21T08:34:58.214Z,94512
2023-09-21T08:36:07.993Z,94511
2023-09-21T08:37:17.673Z,94509
2023-09-21T08:38:27.368Z,94510
2023-09-21T08:39:36.166Z,94512
2023-09-21T08:40:45.771Z,94509
2023-09-21T08:41:54.465Z,94508
2023-09-21T08:43:04.145Z,94507
2023-09-21T08:44:11.869Z,94513
2023-09-21T08:45:20.610Z,94506
2023-09-21T08:46:30.389Z,94509
2023-09-21T08:47:39.542Z,94502
2023-09-21T08:48:49.284Z,94502
2023-09-21T08:49:58.939Z,94504
2023-09-21T08:51:07.659Z,94501
2023-09-21T08:52:17.349Z,94499
2023-09-21T08:53:27.059Z,94498
2023-09-21T08:54:35.793Z,94498
2023-09-21T08:55:45.459Z,94497
2023-09-21T08:56:54.178Z,94499
2023-09-21T08:58:03.913Z,94493
2023-09-21T08:59:12.613Z,94488
2023-09-21T09:00:22.806Z,94486
2023-09-21T09:01:32.489Z,94482
2023-09-21T09:02:41.319Z,94480
2023-09-21T09:03:50.039Z,94479
2023-09-21T09:04:59.633Z,94475
2023-09-21T09:06:07.407Z,94477
2023-09-21T09:07:16.086Z,94476
2023-09-21T09:08:25.918Z,94474
2023-09-21T09:09:35.803Z,94468
2023-09-21T09:10:45.272Z,94469
2023-09-21T09:11:54.982Z,94468
2023-09-21T09:13:03.704Z,94465
2023-09-21T09:14:13.412Z,94463
2023-09-21T09:15:22.130Z,94462
2023-09-21T09:16:30.828Z,94460
2023-09-21T09:17:40.691Z,94457
2023-09-21T09:18:49.283Z,94456
2023-09-21T09:19:58.928Z,94463
2023-09-21T09:21:07.681Z,94458
2023-09-21T09:22:17.405Z,94456
2023-09-21T09:23:27.033Z,94454
2023-09-21T09:24:36.855Z,94456
2023-09-21T09:25:46.471Z,94455
2023-09-21T09:26:55.202Z,94454
2023-09-21T09:28:04.890Z,94448
2023-09-21T09:29:14.619Z,94452
2023-09-21T09:30:22.297Z,94450
2023-09-21T09:31:31.001Z,94448
2023-09-21T09:32:40.731Z,94442
2023-09-21T09:33:50.287Z,94438
2023-09-21T09:34:57.171Z,94438
2023-09-21T09:36:05.989Z,94438
2023-09-21T09:37:14.537Z,94434
2023-09-21T09:38:24.273Z,94433
2023-09-21T09:39:32.918Z,94427
2023-09-21T09:40:42.673Z,94430
2023-09-21T09:41:52.451Z,94431
2023-09-21T09:43:01.206Z,94430
2023-09-21T09:44:10.826Z,94430
2023-09-21T09:45:20.620Z,94430
2023-09-21T09:46:29.268Z,94427
2023-09-21T09:47:38.953Z,94428
2023-09-21T09:48:47.625Z,94429
2023-09-21T09:49:56.295Z,94430
2023-09-21T09:51:06.053Z,94429
2023-09-21T09:52:14.703Z,94429
2023-09-21T09:53:23.456Z,94431
2023-09-21T09:54:33.138Z,94429
2023-09-21T09:55:42.890Z,94429
2023-09-21T09:56:52.611Z,94432
2023-09-21T09:58:02.234Z,94433
2023-09-21T09:59:10.903Z,94427
2023-09-21T10:00:20.612Z,94432
2023-09-21T10:01:30.468Z,94430
2023-09-21T10:02:39.189Z,94428
2023-09-21T10:03:48.203Z,94424
2023-09-21T10:04:57.848Z,94421
2023-09-21T10:06:06.582Z,94421
2023-09-21T10:07:14.273Z,94421
2023-09-21T10:08:22.955Z,94418
2023-09-21T10:09:32.741Z,94414
2023-09-21T10:10:41.460Z,94411
2023-09-21T10:11:50.211Z,94412
2023-09-21T10:12:58.911Z,94407
2023-09-21T10:14:08.631Z,94402
2023-09-21T10:15:19.263Z,94410
2023-09-21T10:16:31.572Z,94401
2023-09-21T10:17:37.728Z,94403
2023-09-21T10:18:47.533Z,94405
2023-09-21T10:19:56.080Z,94407
2023-09-21T10:21:04.861Z,94408
2023-09-21T10:22:14.600Z,94405
2023-09-21T10:23:23.307Z,94403
2023-09-21T10:24:32.002Z,94403
2023-09-21T10:25:40.672Z,94402
2023-09-21T10:26:48.324Z,94399
2023-09-21T10:27:58.105Z,94396
2023-09-21T10:29:07.888Z,94393
2023-09-21T10:30:17.558Z,94395
2023-09-21T10:31:27.216Z,94395
2023-09-21T10:32:35.876Z,94393
2023-09-21T10:33:45.617Z,94390
2023-09-21T10:34:55.277Z,94384
2023-09-21T10:36:04.997Z,94385
2023-09-21T10:37:12.708Z,94384
2023-09-21T10:38:21.373Z,94383
2023-09-21T10:39:31.369Z,94378
2023-09-21T10:40:40.014Z,94373
2023-09-21T10:41:48.736Z,94373
2023-09-21T10:42:57.477Z,94368
2023-09-21T10:44:06.144Z,94366
2023-09-21T10:45:16.056Z,94369
2023-09-21T10:46:25.741Z,94362
2023-09-21T10:47:34.278Z,94362
2023-09-21T10:48:44.118Z,94361
2023-09-21T10:49:51.656Z,94360
2023-09-21T10:51:00.395Z,94360
2023-09-21T10:52:09.117Z,94360
2023-09-21T10:53:18.820Z,94355
2023-09-21T10:54:28.542Z,94361
2023-09-21T10:55:37.219Z,94356
2023-09-21T10:56:46.337Z,94356
2023-09-21T10:57:55.941Z,94356
2023-09-21T10:59:05.638Z,94359
2023-09-21T11:00:14.389Z,94361
2023-09-21T11:01:24.258Z,94356
2023-09-21T11:02:33.769Z,94354
2023-09-21T11:03:43.510Z,94354
2023-09-21T11:04:51.145Z,94351
2023-09-21T11:05:59.968Z,94350
2023-09-21T11:07:09.659Z,94345
2023-09-21T11:08:18.346Z,94347
2023-09-21T11:09:26.051Z,94340
2023-09-21T11:10:35.725Z,94334
2023-09-21T11:11:43.406Z,94334
2023-09-21T11:12:53.391Z,94330
2023-09-21T11:14:00.822Z,94325
2023-09-21T11:15:09.585Z,94327
2023-09-21T11:16:19.293Z,94329
2023-09-21T11:17:28.093Z,94327
2023-09-21T11:18:37.746Z,94328
2023-09-21T11:19:46.461Z,94329
2023-09-21T11:20:54.178Z,94325
2023-09-21T11:22:03.963Z,94322
2023-09-21T11:23:11.636Z,94321
2023-09-21T11:24:20.650Z,94325
2023-09-21T11:25:30.069Z,94321
2023-09-21T11:26:38.784Z,94320
2023-09-21T11:27:48.534Z,94313
2023-09-21T11:28:57.240Z,94314
2023-09-21T11:30:06.032Z,94309
2023-09-21T11:31:15.691Z,94308
2023-09-21T11:32:24.433Z,94300
2023-09-21T11:33:34.314Z,94305
2023-09-21T11:34:43.870Z,94301
2023-09-21T11:35:52.779Z,94297
2023-09-21T11:37:01.498Z,94289
2023-09-21T11:38:09.210Z,94287
2023-09-21T11:39:18.235Z,94287
2023-09-21T11:40:27.931Z,94281
2023-09-21T11:41:37.555Z,94279
2023-09-21T11:42:46.401Z,94275
2023-09-21T11:43:56.072Z,94275
2023-09-21T11:45:05.883Z,94278
2023-09-21T11:46:14.603Z,94271
2023-09-21T11:47:24.255Z,94272
2023-09-21T11:48:33.033Z,94263
2023-09-21T11:49:42.735Z,94266
2023-09-21T11:50:52.324Z,94266
2023-09-21T11:52:01.140Z,94268
2023-09-21T11:53:10.778Z,94267
2023-09-21T11:54:18.533Z,94263
2023-09-21T11:55:27.385Z,94263
2023-09-21T11:56:36.184Z,94264
2023-09-21T11:57:45.865Z,94262
2023-09-21T11:58:54.557Z,94265
2023-09-21T12:00:02.265Z,94266
2023-09-21T12:01:11.000Z,94262
2023-09-21T12:02:20.666Z,94256
2023-09-21T12:03:30.724Z,94259
2023-09-21T12:04:39.510Z,94254
2023-09-21T12:05:48.246Z,94255
2023-09-21T12:06:58.113Z,94257
2023-09-21T12:08:07.935Z,94255
2023-09-21T12:09:16.700Z,94248
2023-09-21T12:10:25.344Z,94250
2023-09-21T12:11:35.909Z,94243
2023-09-21T12:12:43.896Z,94240
2023-09-21T12:13:52.721Z,94242
2023-09-21T12:15:02.420Z,94240
2023-09-21T12:16:12.108Z,94236
2023-09-21T12:17:21.781Z,94233
2023-09-21T12:18:31.979Z,94232
2023-09-21T12:19:42.164Z,94236
2023-09-21T12:20:52.022Z,94235
2023-09-21T12:22:00.579Z,94232
2023-09-21T12:23:09.280Z,94235
2023-09-21T12:24:19.332Z,94232
2023-09-21T12:25:27.973Z,94232
2023-09-21T12:26:37.755Z,94227
2023-09-21T12:27:48.193Z,94225
2023-09-21T12:28:55.137Z,94222
2023-09-21T12:30:03.855Z,94221
2023-09-21T12:31:12.567Z,94219
2023-09-21T12:32:22.317Z,94220
2023-09-21T12:33:41.795Z,94220
2023-09-21T12:34:41.787Z,94222
2023-09-21T12:35:50.462Z,94220
2023-09-21T12:36:59.491Z,94220
2023-09-21T12:38:08.895Z,94215
2023-09-21T12:39:17.302Z,94217
2023-09-21T12:40:27.099Z,94218
2023-09-21T12:41:36.775Z,94217
2023-09-21T12:42:45.439Z,94217
2023-09-21T12:43:54.166Z,94215
2023-09-21T12:45:03.916Z,94212
2023-09-21T12:46:12.621Z,94211
2023-09-21T12:47:22.361Z,94213
2023-09-21T12:48:31.127Z,94211
2023-09-21T12:49:39.722Z,94212
2023-09-21T12:50:49.395Z,94211
2023-09-21T12:51:58.289Z,94210
2023-09-21T12:53:08.043Z,94210
2023-09-21T12:54:17.689Z,94211
2023-09-21T12:55:26.356Z,94208
2023-09-21T12:56:36.015Z,94201
2023-09-21T12:57:43.882Z,94207
2023-09-21T12:58:52.976Z,94204
2023-09-21T13:00:02.723Z,94199
2023-09-21T13:01:13.404Z,94201
2023-09-21T13:02:23.199Z,94198
2023-09-21T13:03:31.941Z,94193
2023-09-21T13:04:40.644Z,94190
2023-09-21T13:05:50.286Z,94187
2023-09-21T13:06:58.031Z,94191
2023-09-21T13:08:06.726Z,94197
2023-09-21T13:09:16.545Z,94192
2023-09-21T13:10:25.069Z,94198
2023-09-21T13:11:33.875Z,94194
2023-09-21T13:12:42.602Z,94193
2023-09-21T13:13:51.369Z,94191
2023-09-21T13:15:01.069Z,94187
2023-09-21T13:16:08.756Z,94183
2023-09-21T13:17:17.446Z,94188
2023-09-21T13:18:27.180Z,94188
2023-09-21T13:19:36.861Z,94182
2023-09-21T13:20:46.562Z,94183
2023-09-21T13:21:55.263Z,94179
2023-09-21T13:23:03.972Z,94180
2023-09-21T13:24:13.699Z,94182
2023-09-21T13:25:23.561Z,94180
2023-09-21T13:26:33.123Z,94178
2023-09-21T13:27:42.866Z,94180
2023-09-21T13:28:50.501Z,94175
2023-09-21T13:30:00.290Z,94181
2023-09-21T13:31:08.932Z,94182
2023-09-21T13:32:18.701Z,94177
2023-09-21T13:33:28.472Z,94179
2023-09-21T13:34:38.306Z,94179
2023-09-21T13:35:43.878Z,94178
2023-09-21T13:36:53.569Z,94171
2023-09-21T13:38:02.326Z,94168
2023-09-21T13:39:11.087Z,94171
2023-09-21T13:40:20.729Z,94168
2023-09-21T13:41:29.825Z,94168
2023-09-21T13:42:39.732Z,94170
2023-09-21T13:43:49.398Z,94171
2023-09-21T13:44:58.142Z,94169
2023-09-21T13:46:07.816Z,94165
2023-09-21T13:47:15.479Z,94159
2023-09-21T13:48:24.354Z,94157
2023-09-21T13:49:32.978Z,94154
2023-09-21T13:50:41.672Z,94151
2023-09-21T13:51:51.364Z,94148
2023-09-21T13:53:00.085Z,94152
2023-09-21T13:54:09.891Z,94149
2023-09-21T13:55:20.977Z,94154
2023-09-21T13:56:29.271Z,94152
2023-09-21T13:57:39.169Z,94149
2023-09-21T13:58:48.747Z,94147
2023-09-21T13:59:58.339Z,94146
2023-09-21T14:01:08.159Z,94147
2023-09-21T14:02:15.779Z,94148
2023-09-21T14:03:25.598Z,94147
2023-09-21T14:04:35.464Z,94149
2023-09-21T14:05:44.199Z,94148
2023-09-21T14:06:53.932Z,94145
2023-09-21T14:08:02.629Z,94143
2023-09-21T14:09:12.314Z,94141
2023-09-21T14:10:21.981Z,94144
2023-09-21T14:11:30.672Z,94141
2023-09-21T14:12:39.429Z,94139
2023-09-21T14:13:49.261Z,94139
2023-09-21T14:14:58.891Z,94138
2023-09-21T14:16:07.574Z,94137
2023-09-21T14:17:16.249Z,94137
2023-09-21T14:18:25.042Z,94140
2023-09-21T14:19:34.706Z,94136
2023-09-21T14:20:43.374Z,94138
2023-09-21T14:21:52.106Z,94133
2023-09-21T14:23:01.886Z,94136
2023-09-21T14:24:10.615Z,94129
2023-09-21T14:25:20.329Z,94127
2023-09-21T14:26:29.024Z,94125
2023-09-21T14:27:38.754Z,94128
2023-09-21T14:28:48.413Z,94124
2023-09-21T14:29:56.280Z,94127
2023-09-21T14:31:05.963Z,94127
2023-09-21T14:32:15.552Z,94128
2023-09-21T14:33:24.313Z,94122
2023-09-21T14:34:33.943Z,94125
2023-09-21T14:35:42.624Z,94127
2023-09-21T14:36:52.366Z,94123
2023-09-21T14:38:01.045Z,94122
2023-09-21T14:39:09.765Z,94122
2023-09-21T14:40:19.538Z,94120
2023-09-21T14:41:28.208Z,94127
2023-09-21T14:42:37.922Z,94122
2023-09-21T14:43:47.572Z,94114
2023-09-21T14:44:55.370Z,94117
2023-09-21T14:46:06.238Z,94131
2023-09-21T14:47:15.734Z,94128
2023-09-21T14:48:25.589Z,94125
2023-09-21T14:49:35.176Z,94121